Time;durP1;ratioP1;P1;durP2;ratioP2;P2;SDS_P1;SDS_P2;PMS_P1;PMS_P2;Temp;Humidity;BMP_temperature;BMP_pressure;BME280_temperature;BME280_humidity;BME280_pressure;Samples;Min_cycle;Max_cycle;Signal;HPM_P1;HPM_P2
2023/04/26 00:00:21;;;;;;;0.93;0.83;;;21.90;63.90;;;;;;5047007;28;20249;-61
2023/04/26 00:02:48;;;;;;;1.55;0.70;;;21.90;63.90;;;;;;5047954;28;20458;-61
2023/04/26 00:05:15;;;;;;;1.35;0.80;;;21.90;63.90;;;;;;5056583;28;20271;-64
2023/04/26 00:07:42;;;;;;;1.00;0.80;;;21.90;63.90;;;;;;5049963;28;20195;-61
2023/04/26 00:10:11;;;;;;;1.10;0.80;;;21.90;64.00;;;;;;5059148;28;20980;-62
2023/04/26 00:12:39;;;;;;;1.17;1.08;;;21.90;64.00;;;;;;5049764;28;20807;-63
2023/04/26 00:15:08;;;;;;;1.10;0.80;;;21.90;64.00;;;;;;5050709;28;20203;-61
2023/04/26 00:17:35;;;;;;;1.15;0.90;;;21.90;64.10;;;;;;5054061;28;20239;-60
2023/04/26 00:20:09;;;;;;;2.10;0.80;;;21.80;64.00;;;;;;5053201;28;20565;-61
2023/04/26 00:22:35;;;;;;;0.80;0.67;;;21.80;64.00;;;;;;5064262;28;20288;-61
2023/04/26 00:25:02;;;;;;;1.70;0.90;;;21.80;64.00;;;;;;5056413;28;20452;-61
2023/04/26 00:27:30;;;;;;;1.00;0.70;;;21.80;64.10;;;;;;5055406;28;20639;-61
2023/04/26 00:29:57;;;;;;;1.38;1.08;;;21.80;64.10;;;;;;5056254;28;20942;-62
2023/04/26 00:32:24;;;;;;;1.27;1.17;;;21.80;64.10;;;;;;5061291;28;20210;-61
2023/04/26 00:34:50;;;;;;;1.45;0.88;;;21.80;64.20;;;;;;5058356;28;20199;-61
2023/04/26 00:37:17;;;;;;;0.90;0.80;;;21.80;64.20;;;;;;5054188;28;20245;-63
2023/04/26 00:39:43;;;;;;;1.00;0.80;;;21.80;64.30;;;;;;5055788;28;20229;-62
2023/04/26 00:42:10;;;;;;;0.93;0.65;;;21.70;64.20;;;;;;5056467;28;20499;-61
2023/04/26 00:44:39;;;;;;;1.20;0.88;;;21.70;64.20;;;;;;5058639;28;20262;-61
2023/04/26 00:47:06;;;;;;;1.00;0.73;;;21.70;64.20;;;;;;5063050;28;20289;-62
2023/04/26 00:49:33;;;;;;;1.80;0.80;;;21.70;64.20;;;;;;5059189;28;20277;-61
2023/04/26 00:51:59;;;;;;;0.90;0.70;;;21.70;64.30;;;;;;5056792;28;20285;-61
2023/04/26 00:54:26;;;;;;;1.10;0.80;;;21.60;64.20;;;;;;5056532;28;20196;-62
2023/04/26 00:56:55;;;;;;;1.30;0.93;;;21.70;64.40;;;;;;5062794;28;20229;-61
2023/04/26 00:59:23;;;;;;;1.13;0.82;;;21.70;64.40;;;;;;5059966;28;20195;-61
2023/04/26 01:01:51;;;;;;;1.02;0.90;;;21.60;64.30;;;;;;5060365;28;20194;-63
2023/04/26 01:04:18;;;;;;;1.30;0.88;;;21.60;64.30;;;;;;5059735;28;20192;-61
2023/04/26 01:06:45;;;;;;;0.93;0.70;;;21.60;64.40;;;;;;5059143;28;20194;-61
2023/04/26 01:09:14;;;;;;;0.90;0.75;;;21.60;64.30;;;;;;5065867;28;20253;-61
2023/04/26 01:11:43;;;;;;;1.20;0.80;;;21.60;64.40;;;;;;5069501;28;20246;-64
2023/04/26 01:14:10;;;;;;;3.05;0.77;;;21.60;64.40;;;;;;5060555;28;20198;-64
2023/04/26 01:16:38;;;;;;;1.30;0.80;;;21.60;64.40;;;;;;5052072;28;20214;-61
2023/04/26 01:19:11;;;;;;;1.23;0.80;;;21.60;64.50;;;;;;5062260;28;20568;-61
2023/04/26 01:21:38;;;;;;;0.98;0.70;;;21.60;64.50;;;;;;5059147;28;20234;-62
2023/04/26 01:24:07;;;;;;;1.17;0.80;;;21.60;64.50;;;;;;5064047;28;20206;-61
2023/04/26 01:26:34;;;;;;;0.90;0.70;;;21.60;64.50;;;;;;5062053;28;20545;-62
2023/04/26 01:29:01;;;;;;;1.00;0.70;;;21.60;64.50;;;;;;5054777;28;20200;-61
2023/04/26 01:31:28;;;;;;;1.80;0.80;;;21.60;64.50;;;;;;5047885;28;20219;-62
2023/04/26 01:33:55;;;;;;;2.00;1.00;;;21.50;64.40;;;;;;5047987;28;20622;-61
2023/04/26 01:36:22;;;;;;;1.65;0.80;;;21.50;64.40;;;;;;5050290;28;20200;-62
2023/04/26 01:38:48;;;;;;;1.00;0.90;;;21.50;64.50;;;;;;5052295;28;20306;-61
2023/04/26 01:41:17;;;;;;;1.00;0.75;;;21.50;64.60;;;;;;5053972;28;20244;-61
2023/04/26 01:43:43;;;;;;;1.27;0.82;;;21.50;64.60;;;;;;5049171;28;20546;-61
2023/04/26 01:46:10;;;;;;;1.10;0.73;;;21.50;64.60;;;;;;5052365;28;20662;-62
2023/04/26 01:48:37;;;;;;;1.10;0.90;;;21.50;64.60;;;;;;5055257;28;20272;-61
2023/04/26 01:51:04;;;;;;;1.30;1.00;;;21.50;64.60;;;;;;5055249;28;20215;-64
2023/04/26 01:53:33;;;;;;;1.10;0.80;;;21.50;64.70;;;;;;5057107;28;20246;-61
2023/04/26 01:56:01;;;;;;;1.10;0.88;;;21.40;64.60;;;;;;5058043;28;20199;-63
2023/04/26 01:58:30;;;;;;;1.08;0.80;;;21.40;64.60;;;;;;5051873;28;20270;-61
2023/04/26 02:01:04;;;;;;;1.00;0.90;;;21.40;64.60;;;;;;5052568;28;20207;-62
2023/04/26 02:03:31;;;;;;;1.27;1.00;;;21.40;64.60;;;;;;5060329;28;20660;-61
2023/04/26 02:05:57;;;;;;;0.90;0.73;;;21.40;64.70;;;;;;5053376;28;20195;-61
2023/04/26 02:08:28;;;;;;;0.90;0.70;;;21.40;64.70;;;;;;5049547;28;20203;-62
2023/04/26 02:10:55;;;;;;;0.90;0.70;;;21.40;64.70;;;;;;5067068;28;20206;-62
2023/04/26 02:13:22;;;;;;;1.10;0.90;;;21.40;64.70;;;;;;5064571;28;20617;-62
2023/04/26 02:15:51;;;;;;;1.00;0.88;;;21.40;64.80;;;;;;5051496;28;20198;-62
2023/04/26 02:18:20;;;;;;;1.50;1.17;;;21.40;64.70;;;;;;5056415;28;20659;-61
2023/04/26 02:20:47;;;;;;;1.13;0.75;;;21.40;64.70;;;;;;5062219;28;20301;-63
2023/04/26 02:23:17;;;;;;;1.23;0.80;;;21.30;64.70;;;;;;5046431;28;20269;-61
2023/04/26 02:25:46;;;;;;;1.00;0.80;;;21.40;64.80;;;;;;5051266;28;20195;-61
2023/04/26 02:28:12;;;;;;;1.10;0.80;;;21.40;64.80;;;;;;5058771;28;20258;-63
2023/04/26 02:30:39;;;;;;;1.75;0.70;;;21.40;64.90;;;;;;5048459;28;20567;-61
2023/04/26 02:33:08;;;;;;;0.90;0.73;;;21.40;64.80;;;;;;5056061;28;20607;-61
2023/04/26 02:35:36;;;;;;;0.90;0.70;;;21.40;64.80;;;;;;5059463;28;20194;-61
2023/04/26 02:38:03;;;;;;;1.85;1.17;;;21.40;64.80;;;;;;5048864;28;20678;-61
2023/04/26 02:40:30;;;;;;;0.90;0.80;;;21.30;64.70;;;;;;5050673;28;20533;-61
2023/04/26 02:42:59;;;;;;;1.35;1.00;;;21.30;64.80;;;;;;5058332;28;20315;-62
2023/04/26 02:45:26;;;;;;;2.08;0.75;;;21.30;64.80;;;;;;5046870;28;20199;-62
2023/04/26 02:47:52;;;;;;;0.93;0.73;;;21.30;64.80;;;;;;5053471;28;20297;-61
2023/04/26 02:50:21;;;;;;;0.93;0.77;;;21.30;64.80;;;;;;5051115;28;20647;-60
2023/04/26 02:52:47;;;;;;;1.25;0.73;;;21.30;64.90;;;;;;5053749;28;20218;-62
2023/04/26 02:55:14;;;;;;;2.08;0.90;;;21.30;65.00;;;;;;5052234;28;20673;-62
2023/04/26 02:57:41;;;;;;;1.05;0.80;;;21.30;64.90;;;;;;5056494;28;20647;-62
2023/04/26 03:00:09;;;;;;;1.00;0.80;;;21.30;64.90;;;;;;5051324;28;20199;-61
2023/04/26 03:02:36;;;;;;;1.17;0.90;;;21.30;64.90;;;;;;5056348;28;20262;-61
2023/04/26 03:05:03;;;;;;;1.05;0.70;;;21.30;65.00;;;;;;5063722;28;20194;-62
2023/04/26 03:07:31;;;;;;;1.00;0.80;;;21.20;64.80;;;;;;5061357;28;20315;-60
2023/04/26 03:09:59;;;;;;;0.85;0.68;;;21.20;64.90;;;;;;5054158;28;20710;-60
2023/04/26 03:12:25;;;;;;;1.00;0.88;;;21.20;65.00;;;;;;5059558;28;20243;-61
2023/04/26 03:14:56;;;;;;;1.00;0.70;;;21.20;65.00;;;;;;5051811;28;20468;-63
2023/04/26 03:17:22;;;;;;;0.90;0.70;;;21.20;65.00;;;;;;5052792;28;20221;-60
2023/04/26 03:19:49;;;;;;;0.90;0.60;;;21.20;65.00;;;;;;5064117;28;20206;-60
2023/04/26 03:22:19;;;;;;;0.90;0.80;;;21.20;65.00;;;;;;5050605;28;20265;-60
2023/04/26 03:24:47;;;;;;;1.10;0.90;;;21.20;65.00;;;;;;5056493;28;20232;-60
2023/04/26 03:27:14;;;;;;;0.90;0.70;;;21.20;65.00;;;;;;5055177;28;20195;-60
2023/04/26 03:29:41;;;;;;;0.90;0.75;;;21.20;65.00;;;;;;5053054;28;20200;-63
2023/04/26 03:32:08;;;;;;;1.13;0.95;;;21.20;65.00;;;;;;5054612;28;20219;-60
2023/04/26 03:34:37;;;;;;;1.10;0.82;;;21.20;65.00;;;;;;5064235;28;20191;-62
2023/04/26 03:37:04;;;;;;;1.30;1.08;;;21.20;65.10;;;;;;5054075;28;20225;-64
2023/04/26 03:39:31;;;;;;;1.13;0.80;;;21.20;65.00;;;;;;5053607;28;20269;-62
2023/04/26 03:41:59;;;;;;;1.08;0.80;;;21.20;65.00;;;;;;5058380;28;20261;-60
2023/04/26 03:44:25;;;;;;;0.90;0.70;;;21.20;65.00;;;;;;5055514;28;20199;-60
2023/04/26 03:46:52;;;;;;;1.00;0.80;;;21.20;65.10;;;;;;5053081;28;20199;-61
2023/04/26 03:49:19;;;;;;;1.20;0.80;;;21.20;65.10;;;;;;5051550;28;20194;-61
2023/04/26 03:51:45;;;;;;;0.95;0.80;;;21.10;65.00;;;;;;5052101;28;20203;-61
2023/04/26 03:54:12;;;;;;;1.58;0.90;;;21.20;65.10;;;;;;5051830;28;20234;-62
2023/04/26 03:56:39;;;;;;;1.08;0.75;;;21.10;65.00;;;;;;5052858;28;20449;-60
2023/04/26 03:59:08;;;;;;;0.90;0.73;;;21.10;65.00;;;;;;5050261;28;20573;-60
2023/04/26 04:01:35;;;;;;;2.33;0.90;;;21.20;65.10;;;;;;5061252;28;20199;-60
2023/04/26 04:04:02;;;;;;;1.05;0.95;;;21.20;65.10;;;;;;5054416;28;20203;-60
2023/04/26 04:06:29;;;;;;;1.00;0.80;;;21.20;65.10;;;;;;5052686;28;20720;-60
2023/04/26 04:08:55;;;;;;;1.45;0.90;;;21.10;65.10;;;;;;5055883;28;20616;-61
2023/04/26 04:11:22;;;;;;;1.00;0.80;;;21.10;65.10;;;;;;5056797;28;20203;-60
2023/04/26 04:13:49;;;;;;;0.90;0.68;;;21.10;65.00;;;;;;5055050;28;20225;-62
2023/04/26 04:16:17;;;;;;;1.52;0.80;;;21.10;65.10;;;;;;5059140;28;20199;-60
2023/04/26 04:18:43;;;;;;;1.08;0.70;;;21.10;65.10;;;;;;5054680;28;20203;-62
2023/04/26 04:21:10;;;;;;;1.02;0.70;;;21.10;65.10;;;;;;5054592;28;20199;-60
2023/04/26 04:23:37;;;;;;;1.23;1.02;;;21.10;65.10;;;;;;5055787;28;20219;-60
2023/04/26 04:26:04;;;;;;;0.90;0.70;;;21.10;65.10;;;;;;5060802;28;20210;-61
2023/04/26 04:28:33;;;;;;;1.08;0.90;;;21.10;65.10;;;;;;5054928;28;20266;-61
2023/04/26 04:30:59;;;;;;;3.67;0.90;;;21.10;65.10;;;;;;5060086;28;20576;-61
2023/04/26 04:33:28;;;;;;;1.00;0.80;;;21.10;65.10;;;;;;5065795;28;20290;-60
2023/04/26 04:35:55;;;;;;;0.90;0.70;;;21.10;65.10;;;;;;5069881;28;20195;-60
2023/04/26 04:38:25;;;;;;;0.95;0.75;;;21.10;65.20;;;;;;5066578;28;20195;-60
2023/04/26 04:40:51;;;;;;;1.00;0.90;;;21.10;65.20;;;;;;5055179;28;20200;-61
2023/04/26 04:43:19;;;;;;;1.15;0.82;;;21.10;65.20;;;;;;5060055;28;20208;-60
2023/04/26 04:45:45;;;;;;;1.45;0.95;;;21.10;65.20;;;;;;5051153;28;20555;-60
2023/04/26 04:48:12;;;;;;;0.90;0.65;;;21.10;65.20;;;;;;5061496;28;20596;-61
2023/04/26 04:50:40;;;;;;;1.00;0.80;;;21.10;65.20;;;;;;5061342;28;20599;-61
2023/04/26 04:53:07;;;;;;;1.15;0.80;;;21.00;65.00;;;;;;5052124;28;20226;-61
2023/04/26 04:55:35;;;;;;;1.50;0.90;;;21.10;65.20;;;;;;5061748;28;20222;-62
2023/04/26 04:58:02;;;;;;;1.00;0.80;;;21.00;65.10;;;;;;5064480;28;20230;-62
2023/04/26 05:00:29;;;;;;;1.02;0.90;;;21.00;65.00;;;;;;5054487;28;20195;-61
2023/04/26 05:02:56;;;;;;;1.08;0.80;;;21.00;65.10;;;;;;5062766;28;20659;-61
2023/04/26 05:05:23;;;;;;;0.90;0.70;;;21.00;65.10;;;;;;5061234;28;20199;-61
2023/04/26 05:07:51;;;;;;;1.38;0.70;;;21.10;65.20;;;;;;5061376;28;20198;-61
2023/04/26 05:10:17;;;;;;;1.52;0.90;;;21.00;65.10;;;;;;5063356;28;20199;-61
2023/04/26 05:12:46;;;;;;;1.00;0.70;;;21.00;65.10;;;;;;5065148;28;20279;-62
2023/04/26 05:15:13;;;;;;;1.00;0.70;;;21.00;65.10;;;;;;5057183;28;20309;-61
2023/04/26 05:17:41;;;;;;;1.27;1.05;;;21.00;65.10;;;;;;5054725;28;20199;-61
2023/04/26 05:20:09;;;;;;;1.25;0.90;;;21.00;65.10;;;;;;5061330;28;20540;-60
2023/04/26 05:22:37;;;;;;;0.90;0.70;;;21.00;65.20;;;;;;5062912;28;20219;-60
2023/04/26 05:25:07;;;;;;;1.38;0.80;;;21.00;65.10;;;;;;5062945;28;20203;-62
2023/04/26 05:27:35;;;;;;;1.10;0.80;;;21.00;65.20;;;;;;5058653;28;20608;-61
2023/04/26 05:30:02;;;;;;;1.00;0.70;;;21.00;65.20;;;;;;5054429;28;20290;-62
2023/04/26 05:32:29;;;;;;;1.08;0.73;;;21.10;65.30;;;;;;5060031;28;20283;-61
2023/04/26 05:34:55;;;;;;;1.00;0.90;;;21.10;65.30;;;;;;5057940;28;20248;-61
2023/04/26 05:37:22;;;;;;;1.70;0.90;;;21.10;65.30;;;;;;5054554;28;20201;-62
2023/04/26 05:39:49;;;;;;;1.30;1.00;;;21.10;65.30;;;;;;5060699;28;20202;-61
2023/04/26 05:42:19;;;;;;;1.00;0.80;;;21.10;65.40;;;;;;5058688;28;20203;-62
2023/04/26 05:44:45;;;;;;;0.90;0.80;;;21.10;66.10;;;;;;5064081;28;20198;-60
2023/04/26 05:47:12;;;;;;;1.10;0.75;;;21.10;65.30;;;;;;5057070;28;20217;-61
2023/04/26 05:49:39;;;;;;;1.00;0.80;;;21.10;65.30;;;;;;5064075;28;20206;-61
2023/04/26 05:52:06;;;;;;;1.10;0.73;;;21.10;65.30;;;;;;5055614;28;20194;-62
2023/04/26 05:54:34;;;;;;;0.98;0.77;;;21.10;65.30;;;;;;5053079;28;20230;-61
2023/04/26 05:57:02;;;;;;;1.10;0.80;;;21.10;65.30;;;;;;5054216;28;20223;-60
2023/04/26 05:59:31;;;;;;;1.00;0.90;;;21.10;65.30;;;;;;5058108;28;20192;-60
2023/04/26 06:02:00;;;;;;;1.15;0.80;;;21.10;65.30;;;;;;5062823;28;20467;-60
2023/04/26 06:04:26;;;;;;;1.00;0.80;;;21.10;65.30;;;;;;5060874;28;20227;-60
2023/04/26 06:06:54;;;;;;;1.00;0.70;;;21.20;65.40;;;;;;5060542;28;20558;-60
2023/04/26 06:09:21;;;;;;;1.08;0.88;;;21.20;65.40;;;;;;5061716;28;20269;-61
2023/04/26 06:11:48;;;;;;;1.52;0.70;;;21.20;65.40;;;;;;5056217;28;20214;-61
2023/04/26 06:14:14;;;;;;;1.10;0.90;;;21.30;65.60;;;;;;5054657;28;20215;-62
2023/04/26 06:16:42;;;;;;;1.10;0.85;;;21.30;65.50;;;;;;5053624;28;20194;-61
2023/04/26 06:19:09;;;;;;;1.10;0.73;;;21.40;65.60;;;;;;5051137;28;20206;-60
2023/04/26 06:21:36;;;;;;;0.90;0.70;;;21.40;65.60;;;;;;5056440;28;20214;-61
2023/04/26 06:24:03;;;;;;;0.90;0.70;;;21.40;65.60;;;;;;5053252;28;20298;-62
2023/04/26 06:26:30;;;;;;;0.90;0.70;;;21.40;65.50;;;;;;5052362;28;20290;-60
2023/04/26 06:28:57;;;;;;;1.10;0.73;;;21.40;65.50;;;;;;5053859;28;20206;-61
2023/04/26 06:31:26;;;;;;;1.23;0.80;;;21.40;65.40;;;;;;5055780;28;20191;-61
2023/04/26 06:33:54;;;;;;;0.90;0.73;;;21.40;65.40;;;;;;5055000;28;20218;-61
2023/04/26 06:36:21;;;;;;;1.17;0.80;;;21.40;65.40;;;;;;5048180;28;20191;-60
2023/04/26 06:38:50;;;;;;;1.10;0.98;;;21.40;65.40;;;;;;5058636;28;20675;-60
2023/04/26 06:41:21;;;;;;;1.30;0.90;;;21.50;65.60;;;;;;5061326;28;20196;-60
2023/04/26 06:43:47;;;;;;;1.30;1.00;;;21.40;65.40;;;;;;5053135;28;20261;-62
2023/04/26 06:46:14;;;;;;;3.00;1.00;;;21.50;65.50;;;;;;5049895;28;20187;-60
2023/04/26 06:48:41;;;;;;;1.00;0.80;;;21.50;65.50;;;;;;5054539;28;20233;-61
2023/04/26 06:51:09;;;;;;;0.90;0.70;;;21.40;65.30;;;;;;5054407;28;20202;-64
2023/04/26 06:53:36;;;;;;;0.95;0.75;;;21.50;65.50;;;;;;5058321;28;20217;-60
2023/04/26 06:56:03;;;;;;;1.30;1.10;;;21.50;65.50;;;;;;5058086;28;20257;-61
2023/04/26 06:58:30;;;;;;;0.90;0.70;;;21.40;65.30;;;;;;5048175;28;20218;-60
2023/04/26 07:00:57;;;;;;;0.85;0.70;;;21.40;65.30;;;;;;5051978;28;20199;-60
2023/04/26 07:03:24;;;;;;;1.13;0.85;;;21.50;66.20;;;;;;5052205;28;20253;-61
2023/04/26 07:05:51;;;;;;;1.10;0.90;;;21.50;65.40;;;;;;5052311;28;20268;-61
2023/04/26 07:08:19;;;;;;;1.00;0.70;;;21.50;65.40;;;;;;5058049;28;20198;-61
2023/04/26 07:10:50;;;;;;;1.00;0.75;;;21.50;65.40;;;;;;5050614;28;20206;-60
2023/04/26 07:13:19;;;;;;;1.20;0.80;;;21.50;65.50;;;;;;5050878;28;20460;-60
2023/04/26 07:15:48;;;;;;;0.90;0.70;;;21.50;65.40;;;;;;5044751;28;20203;-64
2023/04/26 07:18:15;;;;;;;1.17;0.80;;;21.50;65.40;;;;;;5054157;28;20210;-62
2023/04/26 07:20:42;;;;;;;4.40;0.90;;;21.60;65.50;;;;;;5056936;28;20532;-60
2023/04/26 07:23:10;;;;;;;1.10;0.73;;;21.60;65.60;;;;;;5049227;28;20473;-60
2023/04/26 07:25:38;;;;;;;0.90;0.75;;;21.50;65.40;;;;;;5052669;28;20500;-60
2023/04/26 07:28:05;;;;;;;1.00;0.88;;;21.60;65.50;;;;;;5052892;28;20204;-63
2023/04/26 07:30:35;;;;;;;1.20;0.70;;;21.60;65.40;;;;;;5045875;28;20195;-60
2023/04/26 07:33:02;;;;;;;0.80;0.60;;;21.60;65.40;;;;;;5054297;28;20286;-60
2023/04/26 07:35:28;;;;;;;0.90;0.73;;;21.60;65.40;;;;;;5061174;28;20563;-60
2023/04/26 07:37:55;;;;;;;1.10;0.80;;;21.60;65.40;;;;;;5052842;28;20212;-61
2023/04/26 07:40:23;;;;;;;1.08;0.80;;;21.60;65.40;;;;;;5062723;28;20253;-61
2023/04/26 07:42:51;;;;;;;0.90;0.70;;;21.60;65.40;;;;;;5059867;28;20308;-61
2023/04/26 07:45:20;;;;;;;1.40;0.85;;;21.60;65.40;;;;;;5049848;28;20658;-60
2023/04/26 07:47:47;;;;;;;1.00;0.85;;;21.60;65.40;;;;;;5047865;28;20204;-64
2023/04/26 07:50:14;;;;;;;1.00;0.80;;;21.60;65.40;;;;;;5056945;28;20199;-62
2023/04/26 07:52:42;;;;;;;1.00;0.70;;;21.70;65.40;;;;;;5046444;28;20203;-60
2023/04/26 07:55:09;;;;;;;1.00;0.90;;;21.70;65.40;;;;;;5057617;28;20211;-61
2023/04/26 07:57:36;;;;;;;0.90;0.70;;;21.60;65.40;;;;;;5060910;28;20684;-61
2023/04/26 08:00:08;;;;;;;0.90;0.70;;;21.60;65.30;;;;;;5046427;28;20203;-60
2023/04/26 08:02:37;;;;;;;1.70;1.10;;;21.60;65.30;;;;;;5051240;28;20223;-61
2023/04/26 08:05:04;;;;;;;1.52;0.80;;;21.60;65.30;;;;;;5061097;28;20476;-62
2023/04/26 08:07:30;;;;;;;1.10;0.70;;;21.60;65.30;;;;;;5050709;28;20231;-60
2023/04/26 08:09:59;;;;;;;1.13;0.90;;;21.70;65.40;;;;;;5052355;28;20207;-61
2023/04/26 08:12:27;;;;;;;0.90;0.60;;;21.70;65.40;;;;;;5049267;28;20583;-62
2023/04/26 08:14:56;;;;;;;0.90;0.70;;;21.60;65.30;;;;;;5047975;28;20484;-61
2023/04/26 08:17:24;;;;;;;3.10;0.85;;;21.70;65.40;;;;;;5049306;28;20560;-61
2023/04/26 08:19:50;;;;;;;2.00;0.70;;;21.70;66.00;;;;;;5049381;28;20199;-61
2023/04/26 08:22:18;;;;;;;1.70;0.80;;;21.70;66.10;;;;;;5049930;28;20269;-61
2023/04/26 08:24:47;;;;;;;2.30;0.80;;;21.70;66.10;;;;;;5049955;28;20627;-61
2023/04/26 08:27:16;;;;;;;1.73;0.82;;;21.70;66.20;;;;;;5055121;28;20466;-62
2023/04/26 08:29:45;;;;;;;4.00;0.77;;;21.70;66.30;;;;;;5047149;28;20292;-59
2023/04/26 08:32:12;;;;;;;2.30;0.90;;;21.70;66.50;;;;;;5050757;28;20590;-62
2023/04/26 08:34:40;;;;;;;2.00;1.20;;;21.70;66.10;;;;;;5052914;28;20276;-61
2023/04/26 08:37:09;;;;;;;1.05;0.80;;;21.70;65.60;;;;;;5047932;28;20564;-63
2023/04/26 08:39:36;;;;;;;1.30;0.88;;;21.60;65.80;;;;;;5061747;28;20531;-61
2023/04/26 08:42:17;;;;;;;4.00;3.53;;;21.60;65.90;;;;;;5054387;28;20228;-61
2023/04/26 08:44:45;;;;;;;2.85;1.05;;;21.60;65.60;;;;;;5051103;28;20217;-64
2023/04/26 08:47:17;;;;;;;3.42;0.95;;;21.60;65.60;;;;;;5050222;28;20199;-61
2023/04/26 08:49:49;;;;;;;1.38;0.73;;;21.60;66.20;;;;;;5052948;28;20247;-63
2023/04/26 08:52:22;;;;;;;2.97;0.90;;;21.60;65.30;;;;;;5051053;28;20200;-61
2023/04/26 08:54:50;;;;;;;0.90;0.70;;;21.60;65.20;;;;;;5051088;28;20605;-61
2023/04/26 08:57:18;;;;;;;1.73;1.23;;;21.60;65.30;;;;;;5053831;28;20279;-63
2023/04/26 08:59:45;;;;;;;1.20;0.88;;;21.60;65.20;;;;;;5051880;28;20210;-61
2023/04/26 09:02:18;;;;;;;1.30;1.17;;;21.60;65.20;;;;;;5055998;28;20742;-61
2023/04/26 09:08:53;;;;;;;3.85;0.90;;;21.60;65.10;;;;;;5037742;28;20199;-60
2023/04/26 09:12:16;;;;;;;;;;;;;;;;;;;;;
2023/04/26 09:21:30;;;;;;;1.33;0.98;;;21.60;65.10;;;;;;5049756;28;20208;-61
2023/04/26 09:24:03;;;;;;;1.15;0.80;;;21.60;65.10;;;;;;5054073;28;20253;-60
2023/04/26 09:26:33;;;;;;;1.80;1.00;;;21.60;65.10;;;;;;5053241;28;20690;-60
2023/04/26 09:29:39;;;;;;;1.20;0.90;;;21.60;65.00;;;;;;5059360;28;20199;-61
2023/04/26 09:32:30;;;;;;;1.25;0.80;;;21.60;65.00;;;;;;5057211;28;20203;-61
2023/04/26 09:34:57;;;;;;;1.60;0.90;;;21.60;65.00;;;;;;5055255;28;20222;-61
2023/04/26 09:37:25;;;;;;;1.00;0.80;;;21.60;65.00;;;;;;5055486;28;20200;-61
2023/04/26 09:39:52;;;;;;;1.50;1.10;;;21.60;65.00;;;;;;5053719;28;20192;-60
2023/04/26 09:42:20;;;;;;;1.20;0.90;;;21.60;65.00;;;;;;5051985;28;20211;-62
2023/04/26 09:44:46;;;;;;;1.00;0.80;;;21.60;65.00;;;;;;5052047;28;20599;-61
2023/04/26 09:47:16;;;;;;;1.53;0.90;;;21.60;65.00;;;;;;5057389;28;20202;-63
2023/04/26 09:49:45;;;;;;;1.05;0.85;;;21.60;65.00;;;;;;5064562;28;20799;-61
2023/04/26 09:52:12;;;;;;;1.43;0.80;;;21.60;65.00;;;;;;5049373;28;20223;-60
2023/04/26 09:54:45;;;;;;;1.42;0.80;;;21.60;65.00;;;;;;5055434;28;20515;-61
2023/04/26 09:57:13;;;;;;;2.08;1.13;;;21.60;65.00;;;;;;5058917;28;20214;-60
2023/04/26 09:59:45;;;;;;;2.10;1.00;;;21.60;65.00;;;;;;5050946;28;20207;-61
2023/04/26 10:02:19;;;;;;;1.00;0.82;;;21.60;65.00;;;;;;5049883;28;20241;-61
2023/04/26 10:04:48;;;;;;;1.10;1.00;;;21.60;65.00;;;;;;5050042;28;20210;-60
2023/04/26 10:07:19;;;;;;;1.83;0.80;;;21.60;64.90;;;;;;5055872;28;20199;-62
2023/04/26 10:09:47;;;;;;;1.33;1.00;;;21.60;65.00;;;;;;5056811;28;20548;-61
2023/04/26 10:12:16;;;;;;;1.15;0.80;;;21.60;65.00;;;;;;5053541;28;20218;-62
2023/04/26 10:14:43;;;;;;;1.10;1.00;;;21.60;65.00;;;;;;5048331;28;20207;-61
2023/04/26 10:17:14;;;;;;;1.48;0.90;;;21.60;65.00;;;;;;5058341;28;20282;-61
2023/04/26 10:19:43;;;;;;;1.55;1.13;;;21.60;65.00;;;;;;5054655;28;20191;-60
2023/04/26 10:22:14;;;;;;;3.53;1.55;;;21.60;64.70;;;;;;5062945;28;20306;-61
2023/04/26 10:24:44;;;;;;;4.85;0.90;;;21.50;64.20;;;;;;5045157;28;20195;-63
2023/04/26 10:27:15;;;;;;;2.85;1.45;;;21.40;64.20;;;;;;5049926;28;20282;-61
2023/04/26 10:30:07;;;;;;;8.68;1.45;;;21.50;64.60;;;;;;5050456;28;20202;-69
2023/04/26 10:33:13;;;;;;;3.20;1.10;;;21.50;64.90;;;;;;5055909;28;20202;-64
2023/04/26 10:36:07;;;;;;;3.08;1.08;;;21.50;65.00;;;;;;5041260;28;20223;-61
2023/04/26 10:38:35;;;;;;;5.13;1.20;;;21.50;65.40;;;;;;5047578;28;20197;-69
2023/04/26 10:41:32;;;;;;;2.60;1.23;;;21.60;65.70;;;;;;5046866;28;20198;-65
2023/04/26 10:44:16;;;;;;;3.47;1.00;;;21.60;66.00;;;;;;5045172;28;20214;-64
2023/04/26 10:46:50;;;;;;;2.58;1.00;;;21.60;66.50;;;;;;5048182;28;20191;-63
2023/04/26 10:49:18;;;;;;;1.40;0.90;;;21.70;66.60;;;;;;5060728;28;20677;-63
2023/04/26 10:52:15;;;;;;;2.22;1.08;;;21.70;66.70;;;;;;5050283;28;20212;-62
2023/04/26 10:54:54;;;;;;;3.97;1.20;;;21.80;66.90;;;;;;5054495;28;20219;-58
2023/04/26 10:57:22;;;;;;;2.95;1.20;;;21.80;66.80;;;;;;5053023;28;20381;-53
2023/04/26 11:00:25;;;;;;;1.85;1.42;;;21.80;66.80;;;;;;5042549;28;20207;-63
2023/04/26 11:03:11;;;;;;;1.65;1.02;;;21.80;67.10;;;;;;5052021;28;20193;-56
2023/04/26 11:05:56;;;;;;;1.33;0.90;;;21.90;67.20;;;;;;5048628;28;20719;-54
2023/04/26 11:08:27;;;;;;;6.20;2.00;;;21.90;67.30;;;;;;5050870;28;20457;-55
2023/04/26 11:11:10;;;;;;;6.03;1.13;;;22.00;67.50;;;;;;5057992;28;20210;-61
2023/04/26 11:13:38;;;;;;;1.97;1.40;;;21.90;67.10;;;;;;5048622;28;20199;-55
2023/04/26 11:16:08;;;;;;;1.60;1.10;;;22.00;67.30;;;;;;5055550;28;20480;-56
2023/04/26 11:18:36;;;;;;;2.78;1.92;;;22.00;67.50;;;;;;5053865;28;20241;-55
2023/04/26 11:21:04;;;;;;;3.97;1.00;;;22.00;67.40;;;;;;5045975;28;20205;-55
2023/04/26 11:23:38;;;;;;;4.50;1.38;;;22.00;67.30;;;;;;5058686;28;20481;-52
2023/04/26 11:26:07;;;;;;;1.40;1.00;;;22.00;67.50;;;;;;5058132;28;20205;-56
2023/04/26 11:28:35;;;;;;;1.85;1.10;;;22.00;67.50;;;;;;5057957;28;20815;-57
2023/04/26 11:31:03;;;;;;;1.40;1.10;;;22.00;67.50;;;;;;5058397;28;20203;-55
2023/04/26 11:33:32;;;;;;;2.33;1.00;;;22.00;67.60;;;;;;5052309;28;20832;-57
2023/04/26 11:35:59;;;;;;;1.30;1.20;;;22.00;67.80;;;;;;5054778;28;20227;-58
2023/04/26 11:38:27;;;;;;;2.07;0.90;;;22.10;67.80;;;;;;5062758;28;20556;-63
2023/04/26 11:40:56;;;;;;;3.83;1.00;;;22.10;67.70;;;;;;5053678;28;20466;-66
2023/04/26 11:43:31;;;;;;;1.83;0.90;;;22.10;67.70;;;;;;5057584;28;20488;-60
2023/04/26 11:46:00;;;;;;;1.35;0.90;;;22.10;67.60;;;;;;5052230;28;20476;-60
2023/04/26 11:48:28;;;;;;;2.03;0.90;;;22.10;67.60;;;;;;5056409;28;20278;-65
2023/04/26 11:50:57;;;;;;;3.10;1.10;;;22.10;67.60;;;;;;5053763;28;20527;-56
2023/04/26 11:53:24;;;;;;;2.63;1.00;;;22.10;67.80;;;;;;5057146;28;20456;-63
2023/04/26 11:55:53;;;;;;;1.20;0.80;;;22.20;67.60;;;;;;5049299;28;20523;-58
2023/04/26 11:58:20;;;;;;;1.35;0.90;;;22.10;67.60;;;;;;5049311;28;20245;-60
2023/04/26 12:00:57;;;;;;;2.13;0.80;;;22.10;67.50;;;;;;5047976;28;20248;-64
2023/04/26 12:03:29;;;;;;;3.27;1.43;;;22.10;66.80;;;;;;5061099;28;20444;-66
2023/04/26 12:05:57;;;;;;;0.90;0.70;;;22.20;67.00;;;;;;5048822;28;20477;-61
2023/04/26 12:08:27;;;;;;;2.10;0.93;;;22.20;66.90;;;;;;5055690;28;20457;-65
2023/04/26 12:10:54;;;;;;;2.50;1.00;;;22.10;66.80;;;;;;5050392;28;20213;-67
2023/04/26 12:13:20;;;;;;;2.00;1.25;;;22.20;66.80;;;;;;5057890;28;20447;-59
2023/04/26 12:15:49;;;;;;;2.27;0.90;;;22.20;66.90;;;;;;5050064;28;20749;-60
2023/04/26 12:18:18;;;;;;;3.10;1.30;;;22.20;66.80;;;;;;5050199;28;20449;-57
2023/04/26 12:20:48;;;;;;;1.57;0.90;;;22.20;66.80;;;;;;5057464;28;20464;-55
2023/04/26 12:23:17;;;;;;;1.00;0.80;;;22.20;66.90;;;;;;5051780;28;20485;-61
2023/04/26 12:25:54;;;;;;;0.90;0.70;;;22.30;66.90;;;;;;5049281;28;20470;-66
2023/04/26 12:28:26;;;;;;;1.57;1.00;;;22.30;66.90;;;;;;5054227;28;20491;-67
2023/04/26 12:30:52;;;;;;;1.33;1.10;;;22.30;66.90;;;;;;5055502;28;20452;-55
2023/04/26 12:33:21;;;;;;;1.63;0.83;;;22.30;66.80;;;;;;5063169;28;20454;-52
2023/04/26 12:35:50;;;;;;;1.83;0.87;;;22.30;66.80;;;;;;5057205;28;20996;-59
2023/04/26 12:38:18;;;;;;;2.50;1.00;;;22.30;66.90;;;;;;5050703;28;23148;-64
2023/04/26 12:40:48;;;;;;;1.40;0.83;;;22.40;66.80;;;;;;5064197;28;20453;-65
2023/04/26 12:43:15;;;;;;;1.30;0.70;;;22.40;66.90;;;;;;5061081;28;20465;-62
2023/04/26 12:45:42;;;;;;;1.43;0.70;;;22.40;66.80;;;;;;5060737;28;20577;-65
2023/04/26 12:48:08;;;;;;;2.17;0.90;;;22.40;66.80;;;;;;5056172;28;21670;-62
2023/04/26 12:50:35;;;;;;;3.20;0.87;;;22.40;66.70;;;;;;5060727;28;20465;-66
2023/04/26 12:53:04;;;;;;;3.10;1.20;;;22.40;66.80;;;;;;5067714;28;20464;-57
2023/04/26 12:55:35;;;;;;;2.00;0.90;;;22.40;66.70;;;;;;5060086;28;20485;-62
2023/04/26 12:58:01;;;;;;;1.47;1.00;;;22.50;66.80;;;;;;5060634;28;20937;-61
2023/04/26 13:00:29;;;;;;;1.73;0.93;;;22.40;66.70;;;;;;5062240;28;20879;-51
2023/04/26 13:02:56;;;;;;;1.33;1.17;;;22.50;66.80;;;;;;5054175;28;20585;-68
2023/04/26 13:05:24;;;;;;;2.57;0.97;;;22.50;66.80;;;;;;5051762;28;20461;-57
2023/04/26 13:07:54;;;;;;;1.27;0.80;;;22.50;66.70;;;;;;5068145;28;20471;-60